createdAt,value
2022-11-29T00:00:52.604Z,100595.78
2022-11-29T00:03:19.450Z,100597.38
2022-11-29T00:05:46.585Z,100592.69
2022-11-29T00:08:13.837Z,100600.91
2022-11-29T00:10:40.748Z,100603.28
2022-11-29T00:13:07.461Z,100598.06
2022-11-29T00:15:38.783Z,100594.97
2022-11-29T00:18:06.393Z,100595.22
2022-11-29T00:20:34.651Z,100586.19
2022-11-29T00:23:01.780Z,100597.91
2022-11-29T00:25:28.739Z,100594.25
2022-11-29T00:28:05.070Z,100595.94
2022-11-29T00:30:31.755Z,100588.75
2022-11-29T00:32:58.815Z,100587.59
2022-11-29T00:35:25.514Z,100591.25
2022-11-29T00:37:52.167Z,100583.19
2022-11-29T00:40:19.039Z,100579.25
2022-11-29T00:42:45.808Z,100591.25
2022-11-29T00:45:12.477Z,100591.25
2022-11-29T00:47:39.203Z,100595.38
2022-11-29T00:50:07.346Z,100600.47
2022-11-29T00:52:34.019Z,100607.81
2022-11-29T00:55:00.839Z,100604.56
2022-11-29T00:57:27.564Z,100605.97
2022-11-29T00:59:54.398Z,100601.88
2022-11-29T01:02:21.077Z,100600.06
2022-11-29T01:04:47.829Z,100604.44
2022-11-29T01:07:14.877Z,100597.22
2022-11-29T01:09:41.606Z,100597.22
2022-11-29T01:12:08.341Z,100604.00
2022-11-29T01:14:35.769Z,100606.69
2022-11-29T01:17:02.461Z,100605.72
2022-11-29T01:19:29.161Z,100608.84
2022-11-29T01:21:55.861Z,100613.66
2022-11-29T01:24:22.913Z,100619.59
2022-11-29T01:26:49.808Z,100619.88
2022-11-29T01:29:16.508Z,100621.00
2022-11-29T01:31:43.199Z,100627.94
2022-11-29T01:34:11.043Z,100635.44
2022-11-29T01:36:37.783Z,100629.66
2022-11-29T01:39:05.916Z,100632.59
2022-11-29T01:41:34.696Z,100650.41
2022-11-29T01:44:04.481Z,100647.59
2022-11-29T01:46:37.199Z,100652.41
2022-11-29T01:49:09.119Z,100647.59
2022-11-29T01:51:38.318Z,100654.38
2022-11-29T01:54:05.732Z,100655.38
2022-11-29T01:56:34.091Z,100657.06
2022-11-29T01:59:03.769Z,100662.88
2022-11-29T02:01:31.225Z,100670.63
2022-11-29T02:03:58.551Z,100678.16
2022-11-29T02:06:25.510Z,100679.00
2022-11-29T02:08:52.372Z,100672.78
2022-11-29T02:11:31.143Z,100670.50
2022-11-29T02:14:28.490Z,100679.84
2022-11-29T02:16:57.877Z,100691.75
2022-11-29T02:19:47.419Z,100683.38
2022-11-29T02:22:19.659Z,100688.63
2022-11-29T02:25:22.066Z,100693.16
2022-11-29T02:27:48.715Z,100687.91
2022-11-29T02:30:21.738Z,100692.84
2022-11-29T02:33:27.509Z,100689.56
2022-11-29T02:36:09.714Z,100699.63
2022-11-29T02:38:48.607Z,100700.78
2022-11-29T02:41:30.273Z,100699.34
2022-11-29T02:44:05.679Z,100711.25
2022-11-29T02:46:35.133Z,100708.94
2022-11-29T02:49:45.408Z,100717.00
2022-11-29T02:52:19.325Z,100713.19
2022-11-29T02:55:03.841Z,100718.28
2022-11-29T02:57:39.597Z,100728.47
2022-11-29T03:00:21.733Z,100724.63
2022-11-29T03:02:53.717Z,100727.59
2022-11-29T03:05:42.112Z,100734.41
2022-11-29T03:08:46.362Z,100736.09
2022-11-29T03:11:24.924Z,100735.53
2022-11-29T03:14:35.851Z,100734.28
2022-11-29T03:17:36.994Z,100740.47
2022-11-29T03:20:27.358Z,100745.84
2022-11-29T03:23:22.069Z,100740.75
2022-11-29T03:26:04.115Z,100749.38
2022-11-29T03:28:54.143Z,100755.06
2022-11-29T03:31:32.358Z,100748.22
2022-11-29T03:34:04.763Z,100756.44
2022-11-29T03:36:34.979Z,100754.59
2022-11-29T03:39:06.077Z,100750.91
2022-11-29T03:41:40.561Z,100757.16
2022-11-29T03:44:15.394Z,100757.16
2022-11-29T03:46:51.197Z,100763.84
2022-11-29T03:49:28.917Z,100749.34
2022-11-29T03:52:11.197Z,100751.22
2022-11-29T03:54:40.946Z,100758.59
2022-11-29T03:57:07.841Z,100755.44
2022-11-29T03:59:57.464Z,100766.06
2022-11-29T04:02:47.622Z,100772.56
2022-11-29T04:05:30.070Z,100780.47
2022-11-29T04:08:21.221Z,100781.59
2022-11-29T04:11:09.670Z,100784.84
2022-11-29T04:13:57.705Z,100786.03
2022-11-29T04:16:27.539Z,100778.91
2022-11-29T04:19:00.411Z,100775.66
2022-11-29T04:21:45.114Z,100774.81
2022-11-29T04:24:27.451Z,100788.41
2022-11-29T04:27:28.293Z,100790.13
2022-11-29T04:30:04.365Z,100790.13
2022-11-29T04:33:05.296Z,100796.28
2022-11-29T04:35:52.183Z,100789.50
2022-11-29T04:38:37.551Z,100796.28
2022-11-29T04:41:12.923Z,100796.56
2022-11-29T04:43:57.611Z,100803.09
2022-11-29T04:46:39.633Z,100806.31
2022-11-29T04:49:25.269Z,100803.09
2022-11-29T04:52:07.194Z,100805.91
2022-11-29T04:55:07.046Z,100808.34
2022-11-29T04:57:47.639Z,100813.59
2022-11-29T05:00:19.734Z,100820.94
2022-11-29T05:03:00.083Z,100831.41
2022-11-29T05:05:41.566Z,100835.81
2022-11-29T05:08:36.120Z,100835.09
2022-11-29T05:11:09.383Z,100838.81
2022-11-29T05:14:00.943Z,100836.13
2022-11-29T05:16:45.642Z,100836.13
2022-11-29T05:19:28.965Z,100844.91
2022-11-29T05:22:18.152Z,100848.31
2022-11-29T05:25:03.626Z,100856.59
2022-11-29T05:27:42.425Z,100859.28
2022-11-29T05:30:09.375Z,100853.03
2022-11-29T05:33:10.258Z,100860.00
2022-11-29T05:35:42.810Z,100872.66
2022-11-29T05:38:12.474Z,100871.00
2022-11-29T05:40:45.448Z,100877.09
2022-11-29T05:43:51.066Z,100881.44
2022-11-29T05:46:50.167Z,100884.97
2022-11-29T05:49:30.356Z,100885.34
2022-11-29T05:52:36.892Z,100892.31
2022-11-29T05:55:27.628Z,100897.09
2022-11-29T05:57:56.973Z,100893.03
2022-11-29T06:00:25.251Z,100898.72
2022-11-29T06:03:09.308Z,100901.81
2022-11-29T06:05:47.166Z,100908.31
2022-11-29T06:08:22.056Z,100904.38
2022-11-29T06:11:06.165Z,100912.44
2022-11-29T06:13:45.610Z,100909.53
2022-11-29T06:16:30.909Z,100916.63
2022-11-29T06:19:23.792Z,100915.78
2022-11-29T06:22:02.726Z,100919.91
2022-11-29T06:24:46.114Z,100921.88
2022-11-29T06:27:29.595Z,100928.22
2022-11-29T06:30:12.304Z,100941.16
2022-11-29T06:32:52.355Z,100943.38
2022-11-29T06:35:22.462Z,100957.34
2022-11-29T06:37:51.072Z,100956.47
2022-11-29T06:40:17.911Z,100956.41
2022-11-29T06:42:44.843Z,100952.09
2022-11-29T06:45:13.959Z,100961.88
2022-11-29T06:47:47.000Z,100964.47
2022-11-29T06:50:19.919Z,100978.78
2022-11-29T06:53:12.597Z,100973.63
2022-11-29T06:55:42.275Z,100982.66
2022-11-29T06:58:18.027Z,100988.50
2022-11-29T07:01:02.255Z,100980.69
2022-11-29T07:03:53.292Z,100987.91
2022-11-29T07:06:27.257Z,100983.38
2022-11-29T07:09:01.800Z,100978.16
2022-11-29T07:11:28.905Z,100975.06
2022-11-29T07:13:55.816Z,100972.63
2022-11-29T07:16:46.567Z,100957.53
2022-11-29T07:19:46.225Z,100955.78
2022-11-29T07:22:43.681Z,100952.66
2022-11-29T07:25:37.296Z,100947.63
2022-11-29T07:28:41.047Z,100962.28
2022-11-29T07:31:29.034Z,100977.69
2022-11-29T07:33:59.729Z,100979.38
2022-11-29T07:36:33.345Z,100972.63
2022-11-29T07:39:10.033Z,100971.19
2022-11-29T07:41:43.462Z,100972.19
2022-11-29T07:44:32.706Z,100981.22
2022-11-29T07:46:59.466Z,100986.59
2022-11-29T07:49:26.390Z,100988.31
2022-11-29T07:51:55.060Z,100980.25
2022-11-29T07:54:22.630Z,100987.19
2022-11-29T07:56:49.545Z,100983.38
2022-11-29T07:59:16.470Z,100980.69
2022-11-29T08:01:43.208Z,100989.25
2022-11-29T08:04:09.975Z,100993.78
2022-11-29T08:06:37.270Z,101001.72
2022-11-29T08:09:04.939Z,100997.91
2022-11-29T08:11:31.605Z,101010.97
2022-11-29T08:14:02.248Z,101014.94
2022-11-29T08:16:29.653Z,101006.31
2022-11-29T08:18:56.463Z,101009.44
2022-11-29T08:21:23.209Z,101011.41
2022-11-29T08:23:50.982Z,101016.53
2022-11-29T08:26:18.885Z,101003.47
2022-11-29T08:28:45.781Z,101010.31
2022-11-29T08:31:13.969Z,100997.00
2022-11-29T08:33:43.000Z,101005.66
2022-11-29T08:36:12.766Z,101006.97
2022-11-29T08:38:40.115Z,101011.63
2022-11-29T08:41:08.386Z,101006.25
2022-11-29T08:43:35.732Z,101014.38
2022-11-29T08:46:02.486Z,101010.38
2022-11-29T08:48:29.310Z,101005.84
2022-11-29T08:50:56.877Z,101015.75
2022-11-29T08:53:42.309Z,101014.63
2022-11-29T08:56:53.376Z,101012.28
2022-11-29T08:58:59.790Z,101017.66
2022-11-29T09:01:26.990Z,101024.72
2022-11-29T09:03:59.588Z,101027.28
2022-11-29T09:06:28.172Z,101028.59
2022-11-29T09:08:56.586Z,101032.47
2022-11-29T09:11:25.048Z,101038.16
2022-11-29T09:13:57.772Z,101050.53
2022-11-29T09:16:27.134Z,101052.69
2022-11-29T09:18:56.013Z,101066.06
2022-11-29T09:21:27.356Z,101070.84
2022-11-29T09:23:59.136Z,101064.81
2022-11-29T09:26:29.404Z,101064.69
2022-11-29T09:28:58.066Z,101061.28
2022-11-29T09:31:24.870Z,101075.47
2022-11-29T09:33:51.950Z,101068.09
2022-11-29T09:36:23.767Z,101072.09
2022-11-29T09:38:53.422Z,101078.66
2022-11-29T09:41:32.924Z,101078.41
2022-11-29T09:44:10.197Z,101082.19
2022-11-29T09:47:18.495Z,101082.97
2022-11-29T09:50:24.958Z,101091.66
2022-11-29T09:53:21.035Z,101094.22
2022-11-29T09:56:16.995Z,101091.75
2022-11-29T09:58:46.669Z,101088.44
2022-11-29T10:01:19.758Z,101086.41
2022-11-29T10:03:51.985Z,101085.09
2022-11-29T10:06:45.655Z,101088.53
2022-11-29T10:09:23.322Z,101097.13
2022-11-29T10:12:08.842Z,101097.59
2022-11-29T10:14:49.527Z,101096.34
2022-11-29T10:17:19.591Z,101093.47
2022-11-29T10:19:58.590Z,101091.34
2022-11-29T10:22:56.239Z,101096.09
2022-11-29T10:25:35.226Z,101097.06
2022-11-29T10:28:04.339Z,101098.31
2022-11-29T10:30:34.342Z,101096.59
2022-11-29T10:33:01.159Z,101099.41
2022-11-29T10:35:29.655Z,101095.94
2022-11-29T10:38:29.000Z,101088.97
2022-11-29T10:40:48.032Z,101091.53
2022-11-29T10:43:14.704Z,101096.38
2022-11-29T10:45:50.719Z,101094.03
2022-11-29T10:48:19.994Z,101100.38
2022-11-29T10:50:49.054Z,101089.63
2022-11-29T10:53:19.038Z,101083.69
2022-11-29T10:55:53.859Z,101080.31
2022-11-29T10:58:28.279Z,101088.56
2022-11-29T11:00:58.187Z,101091.63
2022-11-29T11:03:43.818Z,101089.22
2022-11-29T11:06:14.803Z,101099.84
2022-11-29T11:08:44.687Z,101093.50
2022-11-29T11:11:12.201Z,101093.94
2022-11-29T11:13:40.963Z,101086.00
2022-11-29T11:16:13.930Z,101092.91
2022-11-29T11:18:40.697Z,101099.59
2022-11-29T11:21:13.062Z,101098.16
2022-11-29T11:23:46.768Z,101096.34
2022-11-29T11:26:14.871Z,101098.31
2022-11-29T11:28:47.293Z,101092.06
2022-11-29T11:31:14.133Z,101093.50
2022-11-29T11:33:45.377Z,101103.41
2022-11-29T11:36:15.318Z,101104.97
2022-11-29T11:38:52.954Z,101112.06
2022-11-29T11:41:52.743Z,101102.03
2022-11-29T11:44:52.572Z,101103.00
2022-11-29T11:47:25.238Z,101093.94
2022-11-29T11:50:02.339Z,101094.50
2022-11-29T11:52:39.796Z,101095.09
2022-11-29T11:55:28.094Z,101096.81
2022-11-29T11:58:13.011Z,101098.06
2022-11-29T12:03:45.773Z,101097.06
2022-11-29T12:06:50.277Z,101093.41
2022-11-29T12:09:35.747Z,101096.97
2022-11-29T12:12:08.105Z,101091.69
2022-11-29T12:14:40.914Z,101090.00
2022-11-29T12:17:42.110Z,101099.25
2022-11-29T12:20:24.045Z,101096.69
2022-11-29T12:22:53.711Z,101096.34
2022-11-29T12:25:32.185Z,101093.41
2022-11-29T12:27:58.967Z,101091.41
2022-11-29T12:30:25.744Z,101095.38
2022-11-29T12:32:56.866Z,101100.09
2022-11-29T12:35:39.561Z,101093.09
2022-11-29T12:38:13.571Z,101100.38
2022-11-29T12:40:59.465Z,101100.66
2022-11-29T12:43:41.471Z,101098.94
2022-11-29T12:46:28.474Z,101102.91
2022-11-29T12:49:13.446Z,101105.59
2022-11-29T12:52:01.675Z,101107.84
2022-11-29T12:54:41.057Z,101099.66
2022-11-29T12:57:22.918Z,101101.06
2022-11-29T13:00:14.847Z,101101.47
2022-11-29T13:03:13.212Z,101097.97
2022-11-29T13:05:39.995Z,101100.75
2022-11-29T13:08:42.195Z,101101.94
2022-11-29T13:11:25.616Z,101100.94
2022-11-29T13:14:20.183Z,101103.38
2022-11-29T13:17:04.046Z,101110.19
2022-11-29T13:19:49.261Z,101115.81
2022-11-29T13:22:21.470Z,101109.00
2022-11-29T13:24:55.152Z,101111.00
2022-11-29T13:27:29.258Z,101116.38
2022-11-29T13:29:56.259Z,101125.13
2022-11-29T13:32:37.504Z,101133.25
2022-11-29T13:35:34.890Z,101128.28
2022-11-29T13:38:10.800Z,101127.09
2022-11-29T13:40:45.167Z,101114.44
2022-11-29T13:43:39.823Z,101107.91
2022-11-29T13:46:20.340Z,101108.78
2022-11-29T13:48:49.409Z,101108.47
2022-11-29T13:51:37.154Z,101114.84
2022-11-29T13:54:06.902Z,101105.22
2022-11-29T13:56:48.926Z,101103.78
2022-11-29T13:59:23.180Z,101103.06
2022-11-29T14:01:53.539Z,101101.81
2022-11-29T14:04:28.427Z,101106.38
2022-11-29T14:07:11.169Z,101111.56
2022-11-29T14:09:45.089Z,101102.09
2022-11-29T14:12:37.815Z,101095.69
2022-11-29T14:15:16.843Z,101101.66
2022-11-29T14:17:56.062Z,101107.50
2022-11-29T14:20:22.712Z,101106.31
2022-11-29T14:23:04.634Z,101101.78
2022-11-29T14:25:54.713Z,101103.63
2022-11-29T14:28:21.359Z,101104.88
2022-11-29T14:31:01.805Z,101111.09
2022-11-29T14:33:43.954Z,101099.34
2022-11-29T14:36:33.672Z,101104.59
2022-11-29T14:39:21.930Z,101093.56
2022-11-29T14:41:51.420Z,101090.97
2022-11-29T14:44:26.550Z,101088.97
2022-11-29T14:47:07.952Z,101097.47
2022-11-29T14:49:40.736Z,101095.63
2022-11-29T14:52:13.533Z,101089.94
2022-11-29T14:55:18.545Z,101093.78
2022-11-29T14:57:48.262Z,101098.56
2022-11-29T15:00:15.058Z,101090.06
2022-11-29T15:02:46.183Z,101103.69
2022-11-29T15:05:32.252Z,101090.50
2022-11-29T15:08:19.047Z,101097.88
2022-11-29T15:10:56.359Z,101107.81
2022-11-29T15:13:32.083Z,101111.34
2022-11-29T15:16:11.005Z,101102.53
2022-11-29T15:18:40.710Z,101103.78
2022-11-29T15:21:36.392Z,101106.94
2022-11-29T15:24:10.928Z,101121.63
2022-11-29T15:26:37.805Z,101117.97
2022-11-29T15:29:20.006Z,101127.75
2022-11-29T15:31:50.160Z,101132.06
2022-11-29T15:34:32.153Z,101124.13
2022-11-29T15:37:00.378Z,101128.00
2022-11-29T15:39:37.354Z,101122.94
2022-11-29T15:42:12.311Z,101131.47
2022-11-29T15:44:45.928Z,101126.69
2022-11-29T15:47:26.430Z,101119.59
2022-11-29T15:49:54.562Z,101120.72
2022-11-29T15:52:28.940Z,101116.31
2022-11-29T15:55:00.154Z,101119.28
2022-11-29T15:57:30.769Z,101129.31
2022-11-29T16:00:01.386Z,101131.72
2022-11-29T16:02:32.125Z,101126.50
2022-11-29T16:05:04.673Z,101129.91
2022-11-29T16:07:34.455Z,101120.63
2022-11-29T16:10:12.400Z,101132.25
2022-11-29T16:12:57.858Z,101130.63
2022-11-29T16:15:27.338Z,101136.50
2022-11-29T16:17:54.359Z,101133.38
2022-11-29T16:20:25.923Z,101123.34
2022-11-29T16:23:08.045Z,101131.28
2022-11-29T16:25:37.795Z,101139.59
2022-11-29T16:28:06.096Z,101141.31
2022-11-29T16:30:33.067Z,101150.81
2022-11-29T16:33:00.869Z,101145.81
2022-11-29T16:35:34.079Z,101142.41
2022-11-29T16:38:04.220Z,101144.00
2022-11-29T16:40:33.335Z,101145.97
2022-11-29T16:43:23.810Z,101141.56
2022-11-29T16:46:21.622Z,101145.56
2022-11-29T16:48:52.896Z,101145.22
2022-11-29T16:51:32.579Z,101149.16
2022-11-29T16:54:19.165Z,101144.88
2022-11-29T16:56:45.855Z,101147.34
2022-11-29T16:59:24.862Z,101149.16
2022-11-29T17:01:53.822Z,101154.75
2022-11-29T17:04:23.533Z,101150.59
2022-11-29T17:06:51.955Z,101141.81
2022-11-29T17:09:36.853Z,101152.84
2022-11-29T17:12:03.958Z,101151.13
2022-11-29T17:14:31.695Z,101151.72
2022-11-29T17:17:02.286Z,101157.50
2022-11-29T17:19:29.954Z,101158.22
2022-11-29T17:21:56.671Z,101163.47
2022-11-29T17:24:24.071Z,101164.03
2022-11-29T17:26:51.368Z,101176.13
2022-11-29T17:29:21.484Z,101184.09
2022-11-29T17:31:53.857Z,101188.25
2022-11-29T17:34:20.700Z,101185.56
2022-11-29T17:36:52.560Z,101189.72
2022-11-29T17:39:20.412Z,101193.38
2022-11-29T17:41:47.179Z,101190.69
2022-11-29T17:44:13.980Z,101195.09
2022-11-29T17:46:40.812Z,101196.91
2022-11-29T17:49:09.660Z,101192.41
2022-11-29T17:51:51.716Z,101199.59
2022-11-29T17:54:19.265Z,101189.00
2022-11-29T17:56:46.084Z,101193.38
2022-11-29T17:59:12.782Z,101190.28
2022-11-29T18:01:39.578Z,101186.25
2022-11-29T18:04:06.685Z,101195.34
2022-11-29T18:06:40.368Z,101198.53
2022-11-29T18:09:09.406Z,101201.31
2022-11-29T18:11:47.708Z,101201.06
2022-11-29T18:14:21.678Z,101203.16
2022-11-29T18:16:48.616Z,101201.31
2022-11-29T18:19:17.941Z,101193.47
2022-11-29T18:21:44.909Z,101198.00
2022-11-29T18:24:11.715Z,101191.28
2022-11-29T18:26:39.266Z,101200.84
2022-11-29T18:29:07.314Z,101196.78
2022-11-29T18:31:38.891Z,101202.44
2022-11-29T18:34:09.901Z,101203.28
2022-11-29T18:36:44.710Z,101203.41
2022-11-29T18:39:16.824Z,101199.00
2022-11-29T18:41:47.007Z,101203.53
2022-11-29T18:44:15.067Z,101201.56
2022-11-29T18:46:43.998Z,101205.25
2022-11-29T18:49:13.377Z,101202.44
2022-11-29T18:51:42.375Z,101206.72
2022-11-29T18:54:09.175Z,101212.22
2022-11-29T18:56:36.884Z,101206.94
2022-11-29T18:59:10.387Z,101209.50
2022-11-29T19:01:42.816Z,101209.50
2022-11-29T19:04:12.535Z,101219.66
2022-11-29T19:06:40.482Z,101223.19
2022-11-29T19:09:11.499Z,101222.84
2022-11-29T19:11:38.717Z,101222.00
2022-11-29T19:14:11.781Z,101225.41
2022-11-29T19:16:40.969Z,101231.03
2022-11-29T19:19:08.004Z,101227.63
2022-11-29T19:21:35.169Z,101228.59
2022-11-29T19:24:04.557Z,101233.72
2022-11-29T19:26:32.745Z,101232.75
2022-11-29T19:29:03.317Z,101232.28
2022-11-29T19:31:30.995Z,101233.31
2022-11-29T19:33:58.910Z,101245.72
2022-11-29T19:36:28.489Z,101242.63
2022-11-29T19:38:56.900Z,101247.41
2022-11-29T19:41:27.039Z,101249.75
2022-11-29T19:43:56.538Z,101247.41
2022-11-29T19:46:29.470Z,101257.94
2022-11-29T19:48:58.564Z,101261.84
2022-11-29T19:51:27.290Z,101256.97
2022-11-29T19:53:57.112Z,101258.31
2022-11-29T19:56:26.769Z,101263.72
2022-11-29T19:58:54.942Z,101264.53
2022-11-29T20:01:26.003Z,101269.19
2022-11-29T20:03:53.990Z,101264.66
2022-11-29T20:06:22.170Z,101260.63
2022-11-29T20:08:49.890Z,101259.78
2022-11-29T20:11:20.358Z,101269.44
2022-11-29T20:14:18.608Z,101263.09
2022-11-29T20:16:46.798Z,101260.66
2022-11-29T20:19:17.025Z,101258.69
2022-11-29T20:21:48.818Z,101260.53
2022-11-29T20:24:20.487Z,101261.88
2022-11-29T20:26:51.101Z,101263.34
2022-11-29T20:29:19.454Z,101267.03
2022-11-29T20:31:50.482Z,101265.41
2022-11-29T20:34:18.422Z,101274.34
2022-11-29T20:37:13.337Z,101266.88
2022-11-29T20:39:53.310Z,101267.03
2022-11-29T20:42:29.736Z,101273.03
2022-11-29T20:45:01.116Z,101275.44
2022-11-29T20:47:47.151Z,101279.47
2022-11-29T20:50:44.574Z,101277.19
2022-11-29T20:53:36.429Z,101282.44
2022-11-29T20:56:04.806Z,101276.56
2022-11-29T20:58:31.647Z,101281.81
2022-11-29T21:00:59.034Z,101283.63
2022-11-29T21:03:26.673Z,101291.06
2022-11-29T21:05:53.851Z,101288.16
2022-11-29T21:08:24.825Z,101287.31
2022-11-29T21:10:51.921Z,101294.16
2022-11-29T21:13:23.097Z,101287.31
2022-11-29T21:15:50.634Z,101296.84
2022-11-29T21:18:28.131Z,101293.41
2022-11-29T21:21:23.340Z,101293.66
2022-11-29T21:23:58.039Z,101303.66
2022-11-29T21:26:41.714Z,101292.69
2022-11-29T21:29:18.760Z,101306.59
2022-11-29T21:31:47.994Z,101301.81
2022-11-29T21:34:14.747Z,101294.63
2022-11-29T21:36:41.772Z,101288.75
2022-11-29T21:39:11.779Z,101284.63
2022-11-29T21:41:38.435Z,101292.91
2022-11-29T21:44:07.565Z,101291.06
2022-11-29T21:46:34.960Z,101290.72
2022-11-29T21:49:02.167Z,101286.44
2022-11-29T21:51:28.880Z,101291.06
2022-11-29T21:53:55.590Z,101288.75
2022-11-29T21:56:22.596Z,101291.94
2022-11-29T21:58:49.310Z,101292.16
2022-11-29T22:01:18.825Z,101285.09
2022-11-29T22:03:45.753Z,101293.91
2022-11-29T22:06:15.446Z,101292.16
2022-11-29T22:08:42.447Z,101287.28
2022-11-29T22:11:11.751Z,101289.38
2022-11-29T22:13:58.595Z,101287.53
2022-11-29T22:16:25.789Z,101292.78
2022-11-29T22:18:52.565Z,101285.56
2022-11-29T22:21:19.462Z,101283.38
2022-11-29T22:23:46.177Z,101290.47
2022-11-29T22:26:12.978Z,101291.56
2022-11-29T22:28:40.003Z,101294.84
2022-11-29T22:31:08.787Z,101297.66
2022-11-29T22:33:36.102Z,101301.44
2022-11-29T22:36:07.999Z,101297.31
2022-11-29T22:38:34.972Z,101299.28
2022-11-29T22:41:06.702Z,101301.22
2022-11-29T22:43:33.676Z,101298.66
2022-11-29T22:46:04.483Z,101303.75
2022-11-29T22:48:36.958Z,101296.31
2022-11-29T22:51:21.365Z,101293.28
2022-11-29T22:53:52.934Z,101292.28
2022-11-29T22:56:20.743Z,101293.75
2022-11-29T22:58:47.470Z,101297.03
2022-11-29T23:01:16.524Z,101292.66
2022-11-29T23:03:45.624Z,101296.19
2022-11-29T23:06:14.113Z,101304.88
2022-11-29T23:08:41.921Z,101300.72
2022-11-29T23:11:11.410Z,101300.47
2022-11-29T23:13:39.890Z,101298.25
2022-11-29T23:16:08.983Z,101310.97
2022-11-29T23:18:36.195Z,101311.97
2022-11-29T23:21:11.374Z,101304.88
2022-11-29T23:23:38.662Z,101301.69
2022-11-29T23:26:07.456Z,101302.56
2022-11-29T23:28:35.485Z,101301.22
2022-11-29T23:31:02.270Z,101309.00
2022-11-29T23:33:29.193Z,101310.72
2022-11-29T23:36:04.035Z,101318.06
2022-11-29T23:38:31.277Z,101321.69
2022-11-29T23:40:58.027Z,101319.53
2022-11-29T23:43:24.811Z,101311.22
2022-11-29T23:45:51.538Z,101315.25
2022-11-29T23:48:18.231Z,101315.72
2022-11-29T23:50:45.108Z,101316.09
2022-11-29T23:53:17.027Z,101308.53
2022-11-29T23:55:43.842Z,101312.91
2022-11-29T23:58:11.156Z,101302.91
